Huvudsida
METAR-TAF:

METAR-TAF

Flygplatser :

Midway, USA

latitud: 28-13N, longitud: 177-22W, höjd: 4 m

Aktuellt väderrapport

Denna rapport gjordes för 29 minuter sedan, klockan 09:56 UTC
Stilla vind
Temperatur 18°C
Fuktighet 68%
Tryck 1024 hPa
Sikt: 16.1 km
Brutna moln på en höjd av 3300 ft

METAR: PMDY 270956Z AUTO 00000KT 10SM BKN033 18/12 A3023 RMK AO2 SLP236 T01830122

Tid: 00:25 (10:25 UTC)

Väderprognos

Denna rapport gjordes för 5 timmar och 4 minuter sedan, klockan 05:21 UTC
Prognos gäller från 27 kl. 06 UTC till 28 kl. 06 UTC
Vind 5 kt varierande vindriktning
Sikt: 10 km
Spridda moln på en höjd av 3500 ft

TAF: PMDY 270521Z 2706/2806 VRB05KT P6SM SCT035

Aktuella väderrapporter och prognoser från 4000 flygplatser (METAR- och TAF-rapporter).

De tillgängliga stationerna syns som gula och röda prickar på kartan.

För musen över prickarna för att se namnen på stationerna.

Klicka sedan för att få väderrapporter och prognoser.

För att ändra kartan: Klicka på de gröna knapparna med ett svart kors på för att zooma in; den gröna knappen med ett streck på för att zooma ut; eller på de gröna pilarna för angränsande kartor.


METAR-TAF: